Airfield :
LOGIN :

Register | Disclaimer

   EN    FR    IT 

 










Legend :    VFR   Marginal VFR   IFR   Intensive IFR   Very Intensive IFR
Visi :
Ceiling :
>= 8 km
>= 3000ft
5 to 8 km
1000 to 3000 ft
1500m to 5 km
500 to 1000 ft
800 to 1500m
200 to 500 ft
< 800m
< 200 ft
Symbols :   Thunderstorms  Fog  Heavy snow  Heavy precipitations  Wind > 20 kt
SIGMETs :     Misc.  Thunderstorms  Icing  Turbulence  Mountain Waves  Volcanic Ashes






- Airport Elevation : 33 ft
- IATA code : MHZ


EGUN - RAF Mildenhall

CURRENT METAR :
  • 142256Z AUTO 03005KT 9999 OVC055 05/05 A2965 RMK AO2 SLP044 T00460046 .

EXPIRED METARs :
  • 142221Z AUTO 04004KT 9999 FEW034 OVC050 05/05 A2964 RMK AO2 SLP041 $
  • 142156Z 03005KT 9999 OVC036 04/04 A2963 RMK AO2A SLP037 T00420042 RVRNO VISNO RWY29 .
  • 142056Z 03004KT 9999 BKN035 03/03 A2961 RMK SLP031 T00340034 52018 $

TAF TAF EGUN
Valid from the 14 at 20:00 until the 16 at 02:00 UTC


142006Z 1420/1602 05006KT 9999 BKN040 QNH2958INS
BECMG 1505/1506 02009KT 8000 -SHRA BKN020 610405 QNH2965INS
BECMG 1507/1508 35012G20KT 9000 -SHRA BKN030 610307 QNH2965INS
BECMG 1509/1510 35012G20KT 9999 NSW BKN030 610307 QNH2957INS
BECMG 1513/1514 01015G25KT 9999 BKN025 610304 QNH2954INS
TEMPO 1514/1516 01020G30KT 520004
BECMG 1518/1519 02010G20KT 9999 BKN015 610304 QNH2952INS TX08/1512Z TN03/1504Z



MET'MAP, your aeronautical weather chart ! - Copyright ORBIFLY December 2007 - Disclaimer

ORBIFLY MET'MAP TEAM :

Programming & Development : Alexandra Zaïnal
Concept & Development : Baudouin d'Aumeries
Co-Development & Prog : Marc-Olivier Méhu
Technical & hardware support : Manuel Goepfert

Contact : metmap@orbifly.com




SOURCES & CREDITS :

   NOAA